Time;durP1;ratioP1;P1;durP2;ratioP2;P2;SDS_P1;SDS_P2;PMS_P1;PMS_P2;Temp;Humidity;BMP_temperature;BMP_pressure;BME280_temperature;BME280_humidity;BME280_pressure;Samples;Min_cycle;Max_cycle;Signal;HPM_P1;HPM_P2
2022/09/24 00:02:24;;;;;;;16.40;9.85;;;;;;;6.69;100.00;100595.88;5571038;32;34170;-66
2022/09/24 00:05:27;;;;;;;15.10;9.60;;;;;;;6.60;100.00;100594.06;5571301;32;34042;-66
2022/09/24 00:08:31;;;;;;;15.20;9.18;;;;;;;6.45;100.00;100591.00;5571104;32;34388;-66
2022/09/24 00:11:34;;;;;;;16.48;10.02;;;;;;;6.36;100.00;100594.47;5571151;32;33974;-66
2022/09/24 00:14:36;;;;;;;14.50;9.50;;;;;;;6.25;100.00;100597.19;5571014;32;33970;-66
2022/09/24 00:17:39;;;;;;;16.50;10.05;;;;;;;6.17;100.00;100593.56;5571035;32;34671;-66
2022/09/24 00:20:42;;;;;;;16.00;10.18;;;;;;;6.10;100.00;100594.09;5570978;32;34600;-66
2022/09/24 00:23:49;;;;;;;16.60;10.07;;;;;;;6.00;100.00;100595.06;5571054;32;33876;-66
2022/09/24 00:26:51;;;;;;;16.80;10.55;;;;;;;5.98;100.00;100594.34;5570988;32;34689;-66
2022/09/24 00:29:54;;;;;;;20.20;11.07;;;;;;;5.93;100.00;100596.53;5570771;32;33998;-66
2022/09/24 00:32:56;;;;;;;18.23;10.00;;;;;;;5.92;100.00;100592.25;5570345;32;34729;-66
2022/09/24 00:36:03;;;;;;;15.52;10.07;;;;;;;5.88;100.00;100588.22;5557459;32;34020;-66
2022/09/24 00:39:06;;;;;;;17.87;10.07;;;;;;;5.85;100.00;100589.28;5570970;32;34067;-65
2022/09/24 00:42:09;;;;;;;15.07;10.65;;;;;;;5.83;100.00;100588.56;5571106;32;35262;-66
2022/09/24 00:45:11;;;;;;;15.65;10.23;;;;;;;5.81;100.00;100585.22;5570976;32;34029;-66
2022/09/24 00:48:14;;;;;;;14.40;10.02;;;;;;;5.80;100.00;100588.00;5570714;32;34163;-66
2022/09/24 00:51:21;;;;;;;14.57;9.68;;;;;;;5.77;100.00;100577.72;5570736;32;33984;-65
2022/09/24 00:54:27;;;;;;;15.88;9.95;;;;;;;5.82;100.00;100578.16;5557013;32;34627;-66
2022/09/24 00:57:30;;;;;;;16.60;10.00;;;;;;;5.79;100.00;100562.66;5570718;32;33832;-66
2022/09/24 01:00:36;;;;;;;17.55;10.73;;;;;;;5.69;100.00;100566.06;5570979;32;34063;-66
2022/09/24 01:03:41;;;;;;;14.57;9.80;;;;;;;5.66;100.00;100562.87;5570616;32;34101;-66
2022/09/24 01:06:44;;;;;;;16.87;9.90;;;;;;;5.65;100.00;100569.94;5570605;32;33911;-66
2022/09/24 01:09:46;;;;;;;15.10;9.85;;;;;;;5.58;100.00;100560.06;5570533;32;34003;-66
2022/09/24 01:13:00;;;;;;;14.87;9.70;;;;;;;5.52;100.00;100563.19;5570530;32;34560;-66
2022/09/24 01:16:12;;;;;;;18.37;10.10;;;;;;;5.48;100.00;100561.81;5556882;32;32337;-66
2022/09/24 01:19:40;;;;;;;17.73;10.30;;;;;;;5.46;100.00;100561.12;5570756;32;34517;-66
2022/09/24 01:22:54;;;;;;;15.27;9.60;;;;;;;5.44;100.00;100555.97;5570459;32;34329;-65
2022/09/24 01:26:42;;;;;;;22.10;10.02;;;;;;;5.42;100.00;100550.00;5570502;32;33893;-66
2022/09/24 01:29:51;;;;;;;15.77;9.88;;;;;;;5.39;100.00;100552.06;5550850;32;33867;-66
2022/09/24 01:32:59;;;;;;;18.00;10.95;;;;;;;5.38;100.00;100545.97;5570329;32;35199;-66
2022/09/24 01:36:07;;;;;;;17.30;10.70;;;;;;;5.36;100.00;100547.06;5570162;32;34192;-66
2022/09/24 01:39:13;;;;;;;14.98;10.35;;;;;;;5.37;100.00;100548.75;5570411;32;34373;-66
2022/09/24 01:42:17;;;;;;;14.98;10.40;;;;;;;5.34;100.00;100546.34;5570337;32;34106;-65
2022/09/24 01:45:21;;;;;;;14.43;9.95;;;;;;;5.32;100.00;100549.16;5569257;32;34086;-66
2022/09/24 01:48:25;;;;;;;14.90;10.13;;;;;;;5.32;100.00;100546.50;5570526;32;33960;-66
2022/09/24 01:51:42;;;;;;;14.77;10.57;;;;;;;5.31;100.00;100544.00;5556594;32;32534;-66
2022/09/24 01:54:50;;;;;;;17.20;11.07;;;;;;;5.30;100.00;100547.59;5556820;32;34007;-66
2022/09/24 01:57:59;;;;;;;17.15;11.05;;;;;;;5.29;100.00;100544.12;5570166;32;34699;-66
2022/09/24 02:01:07;;;;;;;15.88;10.65;;;;;;;5.28;100.00;100542.44;5570162;32;33876;-66
2022/09/24 02:04:16;;;;;;;15.50;10.45;;;;;;;5.24;100.00;100543.69;5570121;32;34367;-66
2022/09/24 02:08:00;;;;;;;16.85;11.00;;;;;;;5.16;100.00;100541.72;5569910;32;34542;-66
2022/09/24 02:11:11;;;;;;;15.80;10.98;;;;;;;5.18;100.00;100537.12;5559926;32;33860;-66
2022/09/24 02:14:14;;;;;;;16.23;10.63;;;;;;;5.17;100.00;100546.00;5569989;32;34643;-66
2022/09/24 02:17:17;;;;;;;16.55;10.45;;;;;;;5.12;100.00;100544.72;5570007;32;33994;-66
2022/09/24 02:20:22;;;;;;;19.33;10.45;;;;;;;5.11;100.00;100540.41;5570104;32;34060;-66
2022/09/24 02:23:27;;;;;;;14.80;9.75;;;;;;;5.12;100.00;100549.97;5569804;32;34711;-66
2022/09/24 02:26:29;;;;;;;17.65;10.52;;;;;;;5.10;100.00;100547.47;5570299;32;34028;-66
2022/09/24 02:29:32;;;;;;;16.05;10.40;;;;;;;5.08;100.00;100545.94;5569734;32;34645;-65
2022/09/24 02:32:38;;;;;;;14.27;9.68;;;;;;;5.08;100.00;100545.94;5569877;32;34003;-66
2022/09/24 02:35:41;;;;;;;15.07;9.90;;;;;;;5.04;100.00;100545.34;5555870;32;32445;-65
2022/09/24 02:38:45;;;;;;;15.15;10.10;;;;;;;5.01;100.00;100547.41;5555693;32;33220;-65
2022/09/24 02:41:49;;;;;;;14.40;10.00;;;;;;;5.07;100.00;100549.53;5569713;32;33949;-65
2022/09/24 02:44:56;;;;;;;15.93;10.38;;;;;;;5.00;100.00;100540.47;5555658;32;32470;-66
2022/09/24 02:47:59;;;;;;;15.90;10.23;;;;;;;5.01;100.00;100545.63;5569621;32;34562;-66
2022/09/24 02:51:03;;;;;;;15.35;10.15;;;;;;;5.02;100.00;100541.19;5569979;32;34038;-65
2022/09/24 02:54:06;;;;;;;15.32;10.23;;;;;;;5.05;100.00;100546.19;5569544;32;33948;-65
2022/09/24 02:57:08;;;;;;;17.55;10.07;;;;;;;5.01;100.00;100550.03;5569104;32;34123;-65
2022/09/24 03:00:12;;;;;;;12.88;9.77;;;;;;;5.00;100.00;100548.38;5569455;32;34674;-65
2022/09/24 03:03:14;;;;;;;13.45;9.65;;;;;;;4.98;100.00;100545.03;5555794;32;32455;-65
2022/09/24 03:06:17;;;;;;;14.00;9.40;;;;;;;4.98;100.00;100545.03;5569491;32;35409;-65
2022/09/24 03:09:20;;;;;;;16.15;9.43;;;;;;;4.96;100.00;100545.16;5569151;32;34179;-65
2022/09/24 03:12:23;;;;;;;13.98;9.40;;;;;;;4.92;100.00;100545.56;5569302;32;33950;-65
2022/09/24 03:15:26;;;;;;;13.57;9.27;;;;;;;4.90;100.00;100547.47;5569254;32;34528;-64
2022/09/24 03:18:28;;;;;;;15.23;9.20;;;;;;;4.89;100.00;100544.00;5569256;32;35209;-65
2022/09/24 03:21:31;;;;;;;11.32;8.55;;;;;;;4.87;100.00;100542.47;5569085;32;33992;-65
2022/09/24 03:24:34;;;;;;;9.38;7.53;;;;;;;4.82;100.00;100527.91;5569051;32;33886;-65
2022/09/24 03:27:36;;;;;;;11.90;8.15;;;;;;;4.80;100.00;100534.25;5569199;32;34021;-66
2022/09/24 03:34:00;;;;;;;11.23;7.57;;;;;;;4.76;100.00;100524.94;5568852;32;33986;-66
2022/09/24 03:37:03;;;;;;;12.18;8.15;;;;;;;4.85;100.00;100518.09;5568777;32;34296;-65
2022/09/24 03:40:06;;;;;;;13.43;8.30;;;;;;;4.79;100.00;100522.91;5568696;32;34135;-65
2022/09/24 03:43:09;;;;;;;11.48;8.02;;;;;;;4.89;100.00;100530.84;5568782;32;34366;-65
2022/09/24 03:46:12;;;;;;;11.30;7.95;;;;;;;4.78;100.00;100523.03;5568682;32;33831;-66
2022/09/24 03:49:16;;;;;;;11.77;7.85;;;;;;;4.76;100.00;100519.69;5568525;32;34066;-65
2022/09/24 03:52:18;;;;;;;14.48;8.60;;;;;;;4.88;100.00;100523.94;5568577;32;34618;-66
2022/09/24 03:55:21;;;;;;;12.68;8.70;;;;;;;4.75;100.00;100520.66;5568478;32;33901;-65
2022/09/24 03:58:24;;;;;;;11.20;8.52;;;;;;;4.70;100.00;100513.16;5568437;32;34611;-65
2022/09/24 04:01:29;;;;;;;10.98;8.18;;;;;;;4.64;100.00;100512.84;5568559;32;34666;-66
2022/09/24 04:04:32;;;;;;;14.25;8.30;;;;;;;4.64;100.00;100515.47;5568161;32;34047;-65
2022/09/24 04:07:35;;;;;;;12.13;8.13;;;;;;;4.61;100.00;100511.28;5568405;32;34213;-65
2022/09/24 04:10:37;;;;;;;11.05;8.50;;;;;;;4.61;100.00;100521.78;5570874;32;34032;-65
2022/09/24 04:13:40;;;;;;;10.95;8.13;;;;;;;4.58;100.00;100516.81;5557719;32;34337;-65
2022/09/24 04:16:44;;;;;;;12.13;8.07;;;;;;;4.58;100.00;100513.34;5571046;32;34582;-65
2022/09/24 04:19:46;;;;;;;14.13;8.13;;;;;;;4.62;100.00;100512.97;5571080;32;34273;-65
2022/09/24 04:22:50;;;;;;;10.82;7.68;;;;;;;4.62;100.00;100512.13;5570974;32;34576;-65
2022/09/24 04:25:53;;;;;;;10.25;7.60;;;;;;;4.67;100.00;100515.22;5544349;32;32315;-65
2022/09/24 04:28:58;;;;;;;13.88;8.45;;;;;;;4.63;100.00;100509.38;5570781;32;34275;-65
2022/09/24 04:32:00;;;;;;;14.43;7.90;;;;;;;4.58;100.00;100515.97;5570959;32;34269;-65
2022/09/24 04:35:03;;;;;;;11.43;8.13;;;;;;;4.56;100.00;100515.25;5570882;32;34211;-65
2022/09/24 04:38:10;;;;;;;12.63;8.43;;;;;;;4.57;100.00;100504.63;5570977;32;33878;-65
2022/09/24 04:41:15;;;;;;;11.23;7.90;;;;;;;4.65;100.00;100511.84;5570788;32;34201;-65
2022/09/24 04:44:17;;;;;;;12.13;7.72;;;;;;;4.70;100.00;100510.53;5570963;32;34606;-66
2022/09/24 04:47:23;;;;;;;12.25;8.57;;;;;;;4.70;100.00;100515.78;5571080;32;34666;-66
2022/09/24 04:50:27;;;;;;;14.40;8.63;;;;;;;4.78;100.00;100507.28;5570650;32;34018;-66
2022/09/24 04:53:36;;;;;;;11.80;8.23;;;;;;;4.80;100.00;100507.97;5570776;32;34410;-65
2022/09/24 04:56:38;;;;;;;11.63;8.60;;;;;;;4.84;100.00;100514.66;5570725;32;34004;-66
2022/09/24 04:59:42;;;;;;;13.77;8.93;;;;;;;4.92;100.00;100522.72;5570694;32;33928;-65
2022/09/24 05:02:45;;;;;;;11.73;8.18;;;;;;;4.96;100.00;100523.28;5570838;32;34086;-65
2022/09/24 05:05:51;;;;;;;14.38;9.07;;;;;;;5.00;100.00;100527.34;5570855;32;34627;-66
2022/09/24 05:08:54;;;;;;;12.20;8.63;;;;;;;5.20;100.00;100515.97;5570595;32;33840;-66
2022/09/24 05:12:00;;;;;;;11.90;8.57;;;;;;;5.47;100.00;100523.31;5570379;32;34910;-66
2022/09/24 05:15:03;;;;;;;14.55;8.68;;;;;;;5.72;100.00;100527.28;5570574;32;34006;-65
2022/09/24 05:18:06;;;;;;;12.37;8.00;;;;;;;6.01;100.00;100523.81;5570410;32;34038;-66
2022/09/24 05:21:08;;;;;;;12.37;8.30;;;;;;;6.16;100.00;100520.78;5556700;32;33297;-65
2022/09/24 05:24:12;;;;;;;13.02;8.18;;;;;;;6.32;100.00;100521.09;5570325;32;34017;-66
2022/09/24 05:27:14;;;;;;;13.85;8.88;;;;;;;6.39;100.00;100519.59;5570329;32;34011;-66
2022/09/24 05:30:19;;;;;;;13.13;8.48;;;;;;;6.39;100.00;100514.31;5556412;32;33068;-66
2022/09/24 05:33:21;;;;;;;12.10;8.80;;;;;;;6.64;100.00;100515.53;5570356;32;34587;-66
2022/09/24 05:36:27;;;;;;;11.50;8.20;;;;;;;6.84;100.00;100515.41;5570282;32;34025;-67
2022/09/24 05:39:30;;;;;;;12.25;8.70;;;;;;;6.69;100.00;100523.88;5570340;32;35282;-66
2022/09/24 05:42:36;;;;;;;16.02;9.90;;;;;;;6.85;100.00;100516.25;5556303;32;32545;-66
2022/09/24 05:45:38;;;;;;;14.70;9.73;;;;;;;7.08;100.00;100525.50;5570238;32;34023;-66
2022/09/24 05:48:41;;;;;;;14.98;10.23;;;;;;;7.21;100.00;100518.09;5570559;32;34142;-67
2022/09/24 05:51:46;;;;;;;15.32;11.02;;;;;;;6.96;100.00;100514.28;5570209;32;33809;-67
2022/09/24 05:54:48;;;;;;;15.30;10.80;;;;;;;6.72;100.00;100511.28;5570267;32;34423;-66
2022/09/24 05:57:51;;;;;;;17.33;11.05;;;;;;;6.54;100.00;100523.47;5570177;32;34194;-66
2022/09/24 06:00:53;;;;;;;14.95;11.00;;;;;;;6.59;100.00;100534.41;5570057;32;34165;-67
2022/09/24 06:03:57;;;;;;;23.38;10.52;;;;;;;6.75;100.00;100536.50;5570189;32;34701;-66
2022/09/24 06:07:00;;;;;;;16.12;9.88;;;;;;;6.80;100.00;100544.84;5570076;32;35191;-67
2022/09/24 06:10:06;;;;;;;15.75;10.13;;;;;;;7.16;100.00;100538.00;5569952;32;33852;-66
2022/09/24 06:13:10;;;;;;;12.95;10.38;;;;;;;7.11;100.00;100546.34;5556260;32;33395;-67
2022/09/24 06:16:13;;;;;;;13.62;10.07;;;;;;;7.24;100.00;100546.03;5569909;32;33976;-66
2022/09/24 06:19:16;;;;;;;14.90;9.63;;;;;;;7.58;100.00;100536.63;5570024;32;34712;-66
2022/09/24 06:22:20;;;;;;;18.87;10.02;;;;;;;7.74;100.00;100541.28;5570064;32;34018;-66
2022/09/24 06:25:29;;;;;;;15.18;10.48;;;;;;;7.69;100.00;100539.09;5570002;32;33940;-66
2022/09/24 06:28:33;;;;;;;15.90;10.43;;;;;;;7.91;100.00;100534.38;5569733;31;34082;-67
2022/09/24 06:31:36;;;;;;;15.73;10.85;;;;;;;8.15;100.00;100538.13;5569354;32;34580;-67
2022/09/24 06:34:38;;;;;;;15.73;11.70;;;;;;;8.21;100.00;100540.19;5569662;32;34592;-67
2022/09/24 06:37:41;;;;;;;14.20;10.80;;;;;;;8.53;100.00;100546.81;5569619;32;34607;-67
2022/09/24 06:40:47;;;;;;;15.35;10.52;;;;;;;8.79;100.00;100536.31;5556103;32;33870;-67
2022/09/24 06:43:53;;;;;;;15.48;10.60;;;;;;;9.22;100.00;100538.13;5569810;32;34824;-67
2022/09/24 06:46:56;;;;;;;17.87;11.18;;;;;;;9.48;100.00;100553.06;5569684;32;34596;-67
2022/09/24 06:49:59;;;;;;;15.73;11.07;;;;;;;9.34;100.00;100543.03;5569907;32;34589;-67
2022/09/24 06:53:05;;;;;;;15.82;11.20;;;;;;;9.85;100.00;100549.25;5569545;32;33885;-68
2022/09/24 06:56:07;;;;;;;17.35;12.13;;;;;;;10.05;97.65;100550.69;5569556;32;34029;-68
2022/09/24 06:59:10;;;;;;;18.30;12.05;;;;;;;10.02;97.08;100546.50;5569331;32;33981;-67
2022/09/24 07:02:13;;;;;;;19.00;12.73;;;;;;;9.85;98.05;100546.63;5569688;32;33918;-67
2022/09/24 07:05:15;;;;;;;18.45;12.37;;;;;;;9.66;97.52;100546.84;5568988;32;33975;-66
2022/09/24 07:08:18;;;;;;;16.80;12.45;;;;;;;9.67;98.15;100537.91;5555520;32;32444;-66
2022/09/24 07:11:21;;;;;;;19.92;12.90;;;;;;;9.69;98.83;100541.22;5568972;32;34539;-67
2022/09/24 07:14:23;;;;;;;17.98;12.73;;;;;;;9.69;99.59;100541.22;5553932;32;34880;-67
2022/09/24 07:17:27;;;;;;;15.00;11.63;;;;;;;10.62;99.74;100546.38;5569044;32;34293;-66
2022/09/24 07:20:35;;;;;;;16.17;11.12;;;;;;;12.00;89.20;100560.34;5555756;32;34575;-67
2022/09/24 07:23:38;;;;;;;14.23;10.90;;;;;;;13.47;78.34;100568.97;5569282;32;34561;-67
2022/09/24 07:26:41;;;;;;;15.82;10.70;;;;;;;13.50;74.54;100563.28;5569131;32;34000;-67
2022/09/24 07:29:46;;;;;;;15.15;10.20;;;;;;;14.75;71.42;100568.38;5541996;32;32359;-68
2022/09/24 07:32:53;;;;;;;13.65;9.18;;;;;;;15.43;67.31;100574.94;5568426;32;34675;-67
2022/09/24 07:35:56;;;;;;;18.42;10.60;;;;;;;15.41;65.25;100584.16;5568766;32;34295;-67
2022/09/24 07:39:00;;;;;;;14.63;10.18;;;;;;;15.58;64.52;100586.41;5568767;32;34549;-68
2022/09/24 07:42:04;;;;;;;15.45;9.50;;;;;;;16.17;63.23;100577.06;5568922;32;33879;-68
2022/09/24 07:45:07;;;;;;;14.23;9.85;;;;;;;16.43;61.71;100577.16;5556809;32;32795;-68
2022/09/24 07:48:11;;;;;;;13.62;9.75;;;;;;;17.70;57.67;100578.78;5571364;32;34362;-68
2022/09/24 07:51:15;;;;;;;16.77;9.77;;;;;;;18.47;53.09;100577.91;5571155;32;33943;-67
2022/09/24 07:54:18;;;;;;;17.30;9.73;;;;;;;19.01;50.60;100581.94;5557257;32;34402;-67
2022/09/24 07:57:20;;;;;;;16.40;10.05;;;;;;;19.02;50.61;100575.53;5557215;32;34686;-68
2022/09/24 08:00:24;;;;;;;13.68;9.90;;;;;;;17.53;53.50;100582.06;5570950;32;34328;-68
2022/09/24 08:03:26;;;;;;;16.62;10.88;;;;;;;16.40;58.37;100582.94;5570986;32;34022;-68
2022/09/24 08:06:33;;;;;;;18.17;11.27;;;;;;;15.10;62.04;100585.34;5571355;32;34686;-68
2022/09/24 08:09:42;;;;;;;16.65;10.95;;;;;;;16.02;59.72;100579.87;5557073;32;34299;-68
2022/09/24 08:12:44;;;;;;;15.07;10.77;;;;;;;16.81;57.86;100572.97;5556891;32;32943;-68
2022/09/24 08:15:55;;;;;;;14.35;10.60;;;;;;;17.85;55.24;100575.03;5570859;32;34205;-68
2022/09/24 08:18:59;;;;;;;19.77;10.73;;;;;;;18.91;52.15;100570.84;5570945;32;34630;-68
2022/09/24 08:22:04;;;;;;;15.25;10.30;;;;;;;17.55;54.30;100561.22;5556567;32;32763;-68
2022/09/24 08:25:07;;;;;;;16.70;10.50;;;;;;;15.60;59.53;100562.94;5571142;32;33885;-68
2022/09/24 08:28:11;;;;;;;20.42;11.65;;;;;;;16.43;57.79;100564.59;5570670;32;33884;-67
2022/09/24 08:31:13;;;;;;;20.98;11.38;;;;;;;16.51;58.58;100560.91;5570672;32;34003;-68
2022/09/24 08:34:16;;;;;;;18.90;10.85;;;;;;;15.87;58.58;100574.66;5543789;32;32744;-67
2022/09/24 08:37:21;;;;;;;21.50;11.25;;;;;;;15.94;60.28;100566.66;5570754;32;34624;-67
2022/09/24 08:40:29;;;;;;;19.75;11.20;;;;;;;16.35;59.68;100561.28;5570544;32;34566;-68
2022/09/24 08:43:55;;;;;;;17.52;11.40;;;;;;;16.50;58.16;100551.25;5570734;32;34932;-67
2022/09/24 08:47:21;;;;;;;23.87;11.05;;;;;;;16.59;56.49;100543.88;5570482;32;34865;-68
2022/09/24 08:50:30;;;;;;;18.00;10.70;;;;;;;16.80;54.96;100541.81;5570372;32;33905;-68
2022/09/24 08:53:45;;;;;;;17.73;10.77;;;;;;;16.96;54.68;100556.69;5569991;32;33946;-68
2022/09/24 08:56:50;;;;;;;18.37;10.38;;;;;;;16.96;57.41;100540.62;5570446;32;33966;-67
2022/09/24 08:59:53;;;;;;;16.85;8.82;;;;;;;17.48;54.77;100552.34;5570245;32;34035;-68
2022/09/24 09:03:22;;;;;;;16.73;8.55;;;;;;;17.03;53.96;100538.78;5570257;32;34541;-68
2022/09/24 09:06:57;;;;;;;19.57;8.67;;;;;;;16.69;54.73;100539.78;5570637;32;33939;-67
2022/09/24 09:10:15;;;;;;;11.85;8.35;;;;;;;16.37;56.67;100543.13;5556769;32;32412;-68
2022/09/24 09:13:23;;;;;;;14.18;8.57;;;;;;;16.42;56.30;100541.50;5556362;32;33451;-67
2022/09/24 09:16:43;;;;;;;19.08;9.52;;;;;;;16.07;57.14;100532.72;5570302;32;33896;-68
2022/09/24 09:19:54;;;;;;;14.13;8.25;;;;;;;16.40;57.56;100521.34;5570428;32;34414;-68
2022/09/24 09:23:03;;;;;;;13.18;7.82;;;;;;;16.48;55.64;100518.47;5556547;32;33246;-68
2022/09/24 09:26:10;;;;;;;16.20;8.00;;;;;;;16.34;57.96;100516.78;5570069;32;34295;-68
2022/09/24 09:29:12;;;;;;;13.38;7.65;;;;;;;17.01;54.56;100513.19;5569811;32;34767;-68
2022/09/24 09:32:35;;;;;;;14.65;7.53;;;;;;;17.42;53.35;100523.69;5570128;32;34385;-68
2022/09/24 09:35:52;;;;;;;10.52;7.00;;;;;;;17.50;52.83;100513.56;5556388;32;32499;-68
2022/09/24 09:39:06;;;;;;;11.90;5.60;;;;;;;17.50;53.74;100508.19;5570183;32;33991;-68
2022/09/24 09:42:34;;;;;;;9.50;4.85;;;;;;;17.02;52.14;100510.31;5570048;32;34709;-68
2022/09/24 09:45:56;;;;;;;7.37;4.70;;;;;;;17.24;50.96;100506.38;5570053;32;34580;-68
2022/09/24 09:49:04;;;;;;;6.90;4.22;;;;;;;17.29;51.39;100500.38;5570157;32;33997;-68
2022/09/24 09:52:14;;;;;;;5.32;3.72;;;;;;;17.91;50.47;100499.84;5569881;32;34785;-68
2022/09/24 09:55:23;;;;;;;6.68;4.47;;;;;;;18.24;49.14;100500.53;5569930;32;34331;-67
2022/09/24 09:58:35;;;;;;;7.80;4.90;;;;;;;18.43;49.33;100501.47;5569921;32;33924;-68
2022/09/24 10:01:40;;;;;;;8.80;4.37;;;;;;;18.42;49.74;100497.13;5570070;32;34135;-68
2022/09/24 10:04:44;;;;;;;5.37;3.20;;;;;;;18.51;48.90;100497.69;5556432;32;34724;-67
2022/09/24 10:07:46;;;;;;;4.87;3.20;;;;;;;18.48;46.70;100503.50;5568956;32;33936;-67
2022/09/24 10:10:58;;;;;;;4.47;2.80;;;;;;;18.97;46.72;100508.16;5569902;32;34126;-68
2022/09/24 10:14:08;;;;;;;6.95;2.50;;;;;;;19.31;45.72;100502.25;5570116;32;33968;-66
2022/09/24 10:17:18;;;;;;;4.65;2.40;;;;;;;18.77;45.33;100494.84;5569800;32;34386;-67
2022/09/24 10:20:26;;;;;;;4.80;2.40;;;;;;;18.16;47.47;100494.56;5569482;32;34380;-67
2022/09/24 10:23:47;;;;;;;4.00;2.10;;;;;;;18.32;48.09;100487.87;5569419;32;34094;-68
2022/09/24 10:26:50;;;;;;;4.53;2.15;;;;;;;18.72;47.00;100483.09;5555758;32;32716;-66
2022/09/24 10:33:17;;;;;;;3.72;2.10;;;;;;;19.22;47.15;100483.94;5569680;32;34573;-69
2022/09/24 10:36:26;;;;;;;3.62;1.77;;;;;;;19.82;45.19;100484.94;5549150;32;33930;-68
2022/09/24 10:39:30;;;;;;;3.20;1.95;;;;;;;19.84;44.76;100478.31;5549238;32;32825;-67
2022/09/24 10:42:32;;;;;;;10.65;2.00;;;;;;;19.88;44.35;100466.03;5550160;32;33959;-66
2022/09/24 10:46:20;;;;;;;4.40;2.03;;;;;;;19.92;44.85;100463.69;5550079;32;33875;-67
2022/09/24 10:49:27;;;;;;;5.93;1.77;;;;;;;19.87;45.95;100461.69;5549471;32;33986;-68
2022/09/24 10:53:04;;;;;;;6.57;1.52;;;;;;;20.66;43.47;100457.91;5542324;32;32560;-69
2022/09/24 10:56:27;;;;;;;2.50;1.50;;;;;;;21.01;39.71;100459.81;5569313;32;35335;-67
2022/09/24 10:59:39;;;;;;;2.78;1.62;;;;;;;23.95;34.55;100455.94;5569822;32;34598;-67
2022/09/24 11:03:23;;;;;;;4.62;1.65;;;;;;;25.26;31.27;100469.09;5569674;32;34555;-67
2022/09/24 11:06:51;;;;;;;4.32;1.67;;;;;;;23.98;33.63;100460.84;5555270;32;33369;-66
2022/09/24 11:10:34;;;;;;;2.58;1.40;;;;;;;24.75;31.79;100455.09;5568712;32;35170;-68
2022/09/24 11:14:09;;;;;;;9.48;1.70;;;;;;;25.39;31.75;100453.13;5524640;32;33120;-66
2022/09/24 11:17:48;;;;;;;1.98;1.20;;;;;;;25.21;30.07;100445.44;5569458;32;35184;-68
2022/09/24 11:21:10;;;;;;;1.80;1.30;;;;;;;26.21;28.86;100440.69;5531306;32;34621;-68
2022/09/24 11:24:25;;;;;;;2.10;1.25;;;;;;;26.04;28.06;100438.22;5570825;32;32622;-70
2022/09/24 11:27:30;;;;;;;4.90;1.58;;;;;;;24.74;29.43;100442.59;5571346;32;34094;-68
2022/09/24 11:30:54;;;;;;;3.75;1.50;;;;;;;24.97;30.36;100434.16;5570838;32;34862;-69
2022/09/24 11:34:22;;;;;;;2.65;1.60;;;;;;;26.71;29.08;100432.63;5571258;32;34337;-69
2022/09/24 11:37:51;;;;;;;10.43;1.70;;;;;;;27.96;27.09;100435.31;5557344;32;32417;-68
2022/09/24 11:41:32;;;;;;;4.70;1.30;;;;;;;27.29;27.61;100435.00;5571672;32;33929;-69
2022/09/24 11:44:41;;;;;;;2.47;1.50;;;;;;;26.44;29.36;100415.72;5563196;32;33727;-69
2022/09/24 11:48:13;;;;;;;4.37;1.50;;;;;;;28.03;26.30;100422.16;5571239;32;34708;-68
2022/09/24 11:51:50;;;;;;;4.07;1.55;;;;;;;30.58;23.93;100414.50;5561051;32;34000;-69
2022/09/24 11:55:17;;;;;;;4.20;1.30;;;;;;;30.95;23.88;100419.03;5570500;32;34620;-69
2022/09/24 11:58:32;;;;;;;1.85;1.23;;;;;;;31.34;22.93;100401.34;5571175;32;34516;-68
2022/09/24 12:01:39;;;;;;;2.50;1.70;;;;;;;29.57;24.26;100407.72;5571137;32;33993;-68
2022/09/24 12:05:02;;;;;;;2.78;1.48;;;;;;;28.07;26.94;100397.88;5557099;32;34282;-67
2022/09/24 12:08:26;;;;;;;7.12;1.30;;;;;;;26.68;27.79;100402.38;5570852;32;33911;-67
2022/09/24 12:11:53;;;;;;;4.75;1.50;;;;;;;26.42;28.30;100396.16;5570878;32;34128;-68
2022/09/24 12:15:11;;;;;;;3.22;1.65;;;;;;;27.29;27.88;100386.78;5571094;32;33973;-68
2022/09/24 12:18:23;;;;;;;3.17;1.40;;;;;;;27.91;27.51;100371.78;5557302;32;33876;-69
2022/09/24 12:21:40;;;;;;;4.93;1.58;;;;;;;25.47;30.02;100373.84;5557190;32;32744;-69
2022/09/24 12:24:50;;;;;;;2.22;1.70;;;;;;;23.49;33.82;100378.72;5557434;32;33198;-68
2022/09/24 12:27:52;;;;;;;2.28;1.40;;;;;;;21.73;36.73;100373.97;5556908;31;33262;-67
2022/09/24 12:35:01;;;;;;;2.95;1.67;;;;;;;20.08;40.25;100378.78;5557106;31;32799;-68
2022/09/24 12:38:29;;;;;;;2.47;1.73;;;;;;;20.25;40.10;100374.34;5505134;32;34695;-69
2022/09/24 12:41:35;;;;;;;8.88;1.90;;;;;;;20.65;39.76;100361.09;5570761;32;34018;-68
2022/09/24 12:44:47;;;;;;;3.75;1.58;;;;;;;20.56;41.36;100366.00;5556656;32;34050;-67
2022/09/24 12:47:54;;;;;;;3.90;2.00;;;;;;;20.57;41.11;100356.88;5556115;32;32393;-67
2022/09/24 12:50:59;;;;;;;6.35;1.77;;;;;;;20.05;41.71;100353.09;5570134;32;34169;-67
2022/09/24 12:54:24;;;;;;;5.47;1.60;;;;;;;19.64;41.60;100359.28;5570433;32;34551;-68
2022/09/24 12:57:34;;;;;;;4.62;1.77;;;;;;;19.67;42.86;100352.63;5556394;32;33428;-68
2022/09/24 13:00:44;;;;;;;5.62;1.90;;;;;;;19.19;42.86;100353.41;5544042;32;33090;-67
2022/09/24 13:04:02;;;;;;;3.45;1.80;;;;;;;19.08;43.77;100343.38;5543834;32;32388;-68
2022/09/24 13:07:43;;;;;;;2.37;1.80;;;;;;;19.17;43.60;100346.63;5570459;32;34054;-67
2022/09/24 13:10:59;;;;;;;3.25;1.77;;;;;;;19.04;43.35;100342.19;5570028;32;34959;-66
2022/09/24 13:14:21;;;;;;;4.03;1.98;;;;;;;18.77;45.47;100346.19;5556770;32;34450;-68
2022/09/24 13:17:24;;;;;;;4.95;2.17;;;;;;;18.63;44.97;100338.28;5570162;32;34321;-67
2022/09/24 13:20:30;;;;;;;3.10;1.85;;;;;;;18.80;45.95;100337.69;5556670;32;32722;-67
2022/09/24 13:23:46;;;;;;;5.62;1.98;;;;;;;18.62;45.95;100338.50;5556492;32;32889;-67
2022/09/24 13:26:49;;;;;;;6.45;2.03;;;;;;;18.39;45.27;100325.66;5570686;32;34011;-68
2022/09/24 13:30:08;;;;;;;4.03;1.70;;;;;;;18.60;45.70;100337.88;5543507;32;34229;-67
2022/09/24 13:33:25;;;;;;;7.32;2.05;;;;;;;18.58;45.60;100327.38;5569724;32;34342;-66
2022/09/24 13:36:50;;;;;;;3.65;1.60;;;;;;;18.71;46.27;100329.09;5570332;32;34581;-67
2022/09/24 13:40:00;;;;;;;3.53;1.80;;;;;;;18.62;44.70;100328.56;5556333;32;33698;-68
2022/09/24 13:43:14;;;;;;;2.90;1.70;;;;;;;18.79;45.90;100323.41;5570043;32;34837;-68
2022/09/24 13:46:19;;;;;;;2.28;1.37;;;;;;;19.71;43.81;100311.56;5570067;32;34540;-66
2022/09/24 13:49:24;;;;;;;3.33;1.80;;;;;;;21.83;38.94;100315.56;5569698;32;34230;-66
2022/09/24 13:52:34;;;;;;;3.90;1.87;;;;;;;21.41;38.18;100314.19;5570083;32;34096;-66
2022/09/24 13:55:46;;;;;;;7.00;1.62;;;;;;;20.60;41.40;100307.06;5570013;32;34656;-67
2022/09/24 13:58:50;;;;;;;3.47;1.67;;;;;;;20.08;42.38;100319.53;5570005;32;34542;-67
2022/09/24 14:01:53;;;;;;;3.37;1.73;;;;;;;19.44;43.50;100321.87;5569703;32;33947;-68
2022/09/24 14:04:59;;;;;;;4.22;1.80;;;;;;;18.98;44.38;100306.25;5570018;32;34532;-68
2022/09/24 14:08:06;;;;;;;6.00;1.73;;;;;;;18.80;46.21;100306.25;5570319;32;34672;-67
2022/09/24 14:11:16;;;;;;;2.95;1.67;;;;;;;18.45;45.62;100311.31;5555753;32;32749;-67
2022/09/24 14:14:23;;;;;;;5.25;1.90;;;;;;;18.24;46.87;100303.66;5569947;32;34867;-68
2022/09/24 14:17:26;;;;;;;3.35;1.95;;;;;;;18.29;46.76;100305.69;5570170;32;33806;-67
2022/09/24 14:20:33;;;;;;;5.82;2.22;;;;;;;18.44;46.56;100296.28;5569621;32;34088;-68
2022/09/24 14:23:47;;;;;;;3.05;1.90;;;;;;;18.64;46.45;100307.66;5570045;32;34526;-67
2022/09/24 14:27:01;;;;;;;7.07;2.10;;;;;;;18.72;47.03;100303.03;5556138;32;33002;-67
2022/09/24 14:30:18;;;;;;;2.60;1.75;;;;;;;18.48;48.03;100305.53;5569389;32;34578;-68
2022/09/24 14:33:32;;;;;;;4.53;1.85;;;;;;;18.33;47.07;100293.47;5569612;32;35181;-66
2022/09/24 14:36:36;;;;;;;3.58;1.80;;;;;;;18.24;48.06;100291.06;5543426;32;33917;-67
2022/09/24 14:39:42;;;;;;;7.45;2.37;;;;;;;18.22;48.33;100286.94;5543093;32;32334;-68